createdAt,value
2023-02-09T00:01:07.876Z,102947.41
2023-02-09T00:04:35.692Z,102945.17
2023-02-09T00:08:02.915Z,102941.27
2023-02-09T00:11:49.881Z,102936.66
2023-02-09T00:15:16.686Z,102929.19
2023-02-09T00:18:43.312Z,102925.97
2023-02-09T00:22:10.037Z,102927.85
2023-02-09T00:25:36.536Z,102929.42
2023-02-09T00:29:04.286Z,102928.65
2023-02-09T00:32:32.610Z,102920.52
2023-02-09T00:35:59.067Z,102910.00
2023-02-09T00:39:25.862Z,102901.93
2023-02-09T00:42:52.999Z,102898.07
2023-02-09T00:46:20.292Z,102897.24
2023-02-09T00:49:47.113Z,102895.34
2023-02-09T00:53:13.564Z,102894.50
2023-02-09T00:56:41.136Z,102890.67
2023-02-09T01:00:08.475Z,102881.09
2023-02-09T01:03:39.300Z,102875.34
2023-02-09T01:07:06.869Z,102874.02
2023-02-09T01:10:33.459Z,102870.51
2023-02-09T01:14:02.857Z,102869.13
2023-02-09T01:17:30.463Z,102869.48
2023-02-09T01:20:57.537Z,102856.55
2023-02-09T01:24:24.217Z,102857.29
2023-02-09T01:27:51.718Z,102857.39
2023-02-09T01:31:26.380Z,102847.77
2023-02-09T01:34:56.169Z,102831.73
2023-02-09T01:38:25.360Z,102822.26
2023-02-09T01:41:51.844Z,102824.37
2023-02-09T01:45:31.287Z,102819.52
2023-02-09T01:49:03.562Z,102813.95
2023-02-09T01:52:32.156Z,102806.59
2023-02-09T01:56:06.244Z,102803.72
2023-02-09T01:59:34.713Z,102805.42
2023-02-09T02:03:05.932Z,102801.07
2023-02-09T02:06:34.008Z,102796.48
2023-02-09T02:10:01.464Z,102793.45
2023-02-09T02:13:28.537Z,102785.87
2023-02-09T02:17:04.612Z,102779.20
2023-02-09T02:21:06.691Z,102767.52
2023-02-09T02:25:04.011Z,102755.92
2023-02-09T02:28:47.177Z,102746.83
2023-02-09T02:32:22.968Z,102738.67
2023-02-09T02:35:56.836Z,102731.73
2023-02-09T02:39:28.235Z,102731.44
2023-02-09T02:43:01.859Z,102731.55
2023-02-09T02:46:34.887Z,102728.14
2023-02-09T02:50:07.731Z,102724.09
2023-02-09T02:53:37.577Z,102721.42
2023-02-09T02:57:09.179Z,102722.67
2023-02-09T03:00:41.283Z,102721.36
2023-02-09T03:04:09.547Z,102726.59
2023-02-09T03:07:36.456Z,102730.11
2023-02-09T03:11:04.446Z,102726.20
2023-02-09T03:14:43.637Z,102725.94
2023-02-09T03:18:21.291Z,102713.52
2023-02-09T03:21:53.928Z,102705.42
2023-02-09T03:25:25.646Z,102702.39
2023-02-09T03:28:57.433Z,102693.85
2023-02-09T03:32:26.641Z,102686.30
2023-02-09T03:35:56.428Z,102683.77
2023-02-09T03:39:27.085Z,102678.20
2023-02-09T03:42:58.344Z,102677.67
2023-02-09T03:46:25.508Z,102667.72
2023-02-09T03:49:52.741Z,102672.31
2023-02-09T03:53:20.609Z,102670.48
2023-02-09T03:56:47.505Z,102672.49
2023-02-09T04:00:17.862Z,102669.73
2023-02-09T04:03:44.867Z,102664.65
2023-02-09T04:07:12.506Z,102663.64
2023-02-09T04:10:40.442Z,102658.45
2023-02-09T04:14:16.536Z,102660.98
2023-02-09T04:17:45.852Z,102656.02
2023-02-09T04:21:12.920Z,102647.30
2023-02-09T04:24:39.944Z,102636.72
2023-02-09T04:28:07.302Z,102626.66
2023-02-09T04:31:35.058Z,102622.10
2023-02-09T04:35:02.311Z,102612.27
2023-02-09T04:38:29.858Z,102607.27
2023-02-09T04:41:58.047Z,102601.15
2023-02-09T04:45:24.831Z,102598.30
2023-02-09T04:48:52.161Z,102602.69
2023-02-09T04:52:19.656Z,102598.75
2023-02-09T04:55:48.864Z,102601.09
2023-02-09T04:59:36.620Z,102598.20
2023-02-09T05:03:05.212Z,102599.90
2023-02-09T05:06:31.960Z,102593.16
2023-02-09T05:09:59.610Z,102593.91
2023-02-09T05:13:28.480Z,102584.74
2023-02-09T05:16:55.921Z,102586.54
2023-02-09T05:20:23.247Z,102584.38
2023-02-09T05:23:50.243Z,102577.92
2023-02-09T05:27:17.531Z,102569.97
2023-02-09T05:30:44.900Z,102568.16
2023-02-09T05:34:12.139Z,102569.55
2023-02-09T05:37:39.971Z,102560.88
2023-02-09T05:41:11.816Z,102560.13
2023-02-09T05:44:38.427Z,102555.56
2023-02-09T05:48:05.761Z,102552.42
2023-02-09T05:51:33.231Z,102553.33
2023-02-09T05:55:00.818Z,102553.16
2023-02-09T05:58:35.030Z,102546.11
2023-02-09T06:02:03.303Z,102540.13
2023-02-09T06:05:30.894Z,102531.02
2023-02-09T06:08:59.567Z,102531.08
2023-02-09T06:12:27.065Z,102530.08
2023-02-09T06:15:54.127Z,102525.93
2023-02-09T06:19:23.043Z,102531.40
2023-02-09T06:22:50.594Z,102530.08
2023-02-09T06:26:19.764Z,102530.09
2023-02-09T06:29:46.610Z,102530.08
2023-02-09T06:33:13.496Z,102525.44
2023-02-09T06:36:40.516Z,102526.23
2023-02-09T06:40:11.239Z,102531.93
2023-02-09T06:43:38.555Z,102524.73
2023-02-09T06:47:05.535Z,102518.23
2023-02-09T06:50:32.837Z,102525.31
2023-02-09T06:53:59.703Z,102528.20
2023-02-09T06:57:26.633Z,102531.62
2023-02-09T07:00:53.751Z,102530.73
2023-02-09T07:04:21.263Z,102530.23
2023-02-09T07:07:48.425Z,102528.18
2023-02-09T07:11:17.458Z,102528.67
2023-02-09T07:14:44.579Z,102529.71
2023-02-09T07:18:11.320Z,102528.14
2023-02-09T07:21:38.250Z,102531.23
2023-02-09T07:25:05.991Z,102527.03
2023-02-09T07:28:33.796Z,102525.41
2023-02-09T07:32:01.522Z,102519.14
2023-02-09T07:35:28.476Z,102517.73
2023-02-09T07:38:56.269Z,102514.75
2023-02-09T07:42:24.207Z,102512.58
2023-02-09T07:46:02.672Z,102511.02
2023-02-09T07:49:30.106Z,102503.05
2023-02-09T07:52:58.043Z,102501.88
2023-02-09T07:56:25.390Z,102503.70
2023-02-09T07:59:58.217Z,102504.30
2023-02-09T08:03:27.465Z,102502.46
2023-02-09T08:06:56.559Z,102501.98
2023-02-09T08:10:27.229Z,102500.08
2023-02-09T08:13:56.100Z,102502.34
2023-02-09T08:17:26.216Z,102508.02
2023-02-09T08:20:54.804Z,102508.60
2023-02-09T08:24:24.186Z,102505.04
2023-02-09T08:27:51.563Z,102502.63
2023-02-09T08:31:23.185Z,102502.77
2023-02-09T08:34:50.666Z,102500.98
2023-02-09T08:38:17.982Z,102495.41
2023-02-09T08:41:46.261Z,102493.45
2023-02-09T08:45:13.776Z,102487.73
2023-02-09T08:48:42.027Z,102482.89
2023-02-09T08:52:11.473Z,102478.67
2023-02-09T08:55:40.945Z,102478.23
2023-02-09T08:59:08.902Z,102474.41
2023-02-09T09:02:36.214Z,102470.65
2023-02-09T09:06:06.404Z,102469.84
2023-02-09T09:09:33.882Z,102471.06
2023-02-09T09:13:00.616Z,102469.16
2023-02-09T09:16:27.532Z,102466.02
2023-02-09T09:19:56.574Z,102459.98
2023-02-09T09:23:24.085Z,102460.73
2023-02-09T09:26:50.633Z,102463.48
2023-02-09T09:30:18.522Z,102462.62
2023-02-09T09:33:46.326Z,102463.77
2023-02-09T09:37:13.167Z,102457.88
2023-02-09T09:40:43.094Z,102463.10
2023-02-09T09:44:20.844Z,102463.05
2023-02-09T09:47:48.380Z,102467.31
2023-02-09T09:51:19.826Z,102459.47
2023-02-09T09:54:49.449Z,102460.67
2023-02-09T09:58:21.901Z,102458.95
2023-02-09T10:01:50.054Z,102455.23
2023-02-09T10:05:21.750Z,102444.27
2023-02-09T10:08:55.167Z,102438.30
2023-02-09T10:12:34.267Z,102430.70
2023-02-09T10:16:01.955Z,102432.46
2023-02-09T10:19:33.398Z,102430.44
2023-02-09T10:23:04.525Z,102425.46
2023-02-09T10:26:35.123Z,102418.52
2023-02-09T10:30:28.828Z,102414.03
2023-02-09T10:34:04.770Z,102402.33
2023-02-09T10:37:38.574Z,102402.78
2023-02-09T10:41:10.140Z,102405.38
2023-02-09T10:44:40.473Z,102403.20
2023-02-09T10:48:22.812Z,102399.48
2023-02-09T10:51:52.854Z,102395.98
2023-02-09T10:55:24.356Z,102389.94
2023-02-09T10:59:00.930Z,102386.86
2023-02-09T11:02:43.533Z,102376.24
2023-02-09T11:06:19.020Z,102372.88
2023-02-09T11:09:55.496Z,102367.05
2023-02-09T11:13:32.358Z,102355.89
2023-02-09T11:17:29.796Z,102350.21
2023-02-09T11:21:07.454Z,102347.67
2023-02-09T11:24:59.405Z,102341.95
2023-02-09T11:28:41.108Z,102327.71
2023-02-09T11:32:19.519Z,102317.60
2023-02-09T11:35:57.567Z,102314.71
2023-02-09T11:39:37.475Z,102313.80
2023-02-09T11:43:17.423Z,102311.85
2023-02-09T11:46:50.419Z,102299.73
2023-02-09T11:50:26.930Z,102294.64
2023-02-09T11:54:03.862Z,102288.39
2023-02-09T11:57:36.388Z,102281.66
2023-02-09T12:01:16.823Z,102278.35
2023-02-09T12:04:49.692Z,102270.70
2023-02-09T12:08:54.622Z,102256.14
2023-02-09T12:12:29.912Z,102245.94
2023-02-09T12:16:03.792Z,102237.92
2023-02-09T12:19:36.646Z,102228.56
2023-02-09T12:23:08.131Z,102228.61
2023-02-09T12:26:45.780Z,102224.37
2023-02-09T12:30:42.822Z,102213.68
2023-02-09T12:34:40.647Z,102206.47
2023-02-09T12:38:21.814Z,102198.23
2023-02-09T12:42:23.457Z,102194.32
2023-02-09T12:46:27.851Z,102186.81
2023-02-09T12:50:07.857Z,102171.68
2023-02-09T12:53:49.429Z,102167.11
2023-02-09T12:57:53.607Z,102151.95
2023-02-09T13:01:22.199Z,102132.45
2023-02-09T13:04:58.441Z,102130.48
2023-02-09T13:08:41.362Z,102126.77
2023-02-09T13:12:15.010Z,102131.57
2023-02-09T13:15:57.633Z,102132.09
2023-02-09T13:20:01.406Z,102138.60
2023-02-09T13:23:37.388Z,102132.39
2023-02-09T13:27:04.575Z,102132.67
2023-02-09T13:30:35.831Z,102128.30
2023-02-09T13:34:06.073Z,102126.43
2023-02-09T13:37:41.707Z,102125.88
2023-02-09T13:41:25.014Z,102126.17
2023-02-09T13:44:56.777Z,102122.67
2023-02-09T13:48:28.604Z,102123.85
2023-02-09T13:52:16.581Z,102126.82
2023-02-09T13:55:45.680Z,102132.86
2023-02-09T13:59:17.911Z,102132.04
2023-02-09T14:02:49.317Z,102124.64
2023-02-09T14:06:36.781Z,102124.27
2023-02-09T14:10:25.112Z,102128.55
2023-02-09T14:14:14.449Z,102119.26
2023-02-09T14:17:56.166Z,102115.65
2023-02-09T14:21:50.469Z,102115.33
2023-02-09T14:25:26.858Z,102115.98
2023-02-09T14:29:05.069Z,102107.79
2023-02-09T14:32:47.344Z,102107.14
2023-02-09T14:36:34.531Z,102100.80
2023-02-09T14:40:25.250Z,102093.11
2023-02-09T14:44:02.610Z,102080.79
2023-02-09T14:47:42.976Z,102079.29
2023-02-09T14:51:17.785Z,102081.20
2023-02-09T14:54:50.542Z,102077.96
2023-02-09T14:58:25.069Z,102083.16
2023-02-09T15:01:54.890Z,102084.98
2023-02-09T15:05:24.200Z,102089.05
2023-02-09T15:08:51.214Z,102081.09
2023-02-09T15:12:25.201Z,102075.49
2023-02-09T15:15:55.214Z,102074.20
2023-02-09T15:19:25.143Z,102066.66
2023-02-09T15:22:53.071Z,102071.30
2023-02-09T15:26:23.006Z,102072.56
2023-02-09T15:29:50.023Z,102066.28
2023-02-09T15:33:16.773Z,102059.08
2023-02-09T15:36:43.712Z,102070.21
2023-02-09T15:40:42.912Z,102079.48
2023-02-09T15:44:41.714Z,102072.13
2023-02-09T15:48:11.017Z,102068.84
2023-02-09T15:51:40.353Z,102082.38
2023-02-09T15:55:09.094Z,102097.67
2023-02-09T15:58:41.140Z,102101.36
2023-02-09T16:02:14.288Z,102104.84
2023-02-09T16:05:41.405Z,102096.88
2023-02-09T16:09:19.360Z,102096.92
2023-02-09T16:12:48.292Z,102086.40
2023-02-09T16:16:17.606Z,102086.98
2023-02-09T16:19:46.293Z,102090.83
2023-02-09T16:23:20.791Z,102094.30
2023-02-09T16:26:49.410Z,102097.05
2023-02-09T16:30:21.602Z,102087.89
2023-02-09T16:33:51.730Z,102075.79
2023-02-09T16:37:20.117Z,102071.90
2023-02-09T16:40:48.204Z,102057.44
2023-02-09T16:44:19.911Z,102034.24
2023-02-09T16:47:50.666Z,102028.30
2023-02-09T16:51:20.207Z,102033.27
2023-02-09T16:54:52.412Z,102028.30
2023-02-09T16:58:21.596Z,102015.80
2023-02-09T17:01:49.717Z,102021.28
2023-02-09T17:05:23.211Z,102013.28
2023-02-09T17:08:50.881Z,102015.09
2023-02-09T17:12:18.263Z,102007.99
2023-02-09T17:15:48.539Z,102009.10
2023-02-09T17:19:23.141Z,102012.55
2023-02-09T17:22:53.483Z,102011.56
2023-02-09T17:26:21.956Z,102018.88
2023-02-09T17:29:48.654Z,102032.67
2023-02-09T17:33:27.801Z,102031.48
2023-02-09T17:36:55.916Z,102028.21
2023-02-09T17:40:24.342Z,102026.69
2023-02-09T17:44:03.628Z,102019.11
2023-02-09T17:47:33.341Z,102023.63
2023-02-09T17:51:03.369Z,102030.21
2023-02-09T17:54:32.846Z,102027.59
2023-02-09T17:58:01.754Z,102021.95
2023-02-09T18:01:30.201Z,102019.38
2023-02-09T18:04:58.330Z,102016.77
2023-02-09T18:08:27.783Z,102002.42
2023-02-09T18:12:10.314Z,102001.38
2023-02-09T18:15:40.698Z,101986.48
2023-02-09T18:19:07.904Z,101982.52
2023-02-09T18:22:43.414Z,101983.52
2023-02-09T18:26:12.247Z,101972.90
2023-02-09T18:29:41.301Z,101956.96
2023-02-09T18:33:09.086Z,101958.10
2023-02-09T18:36:38.883Z,101960.09
2023-02-09T18:40:07.845Z,101930.15
2023-02-09T18:43:35.126Z,101930.79
2023-02-09T18:47:03.144Z,101924.80
2023-02-09T18:50:32.734Z,101921.84
2023-02-09T18:54:02.202Z,101915.31
2023-02-09T18:57:29.204Z,101923.80
2023-02-09T19:00:57.780Z,101921.23
2023-02-09T19:04:26.103Z,101929.24
2023-02-09T19:07:54.992Z,101941.73
2023-02-09T19:11:23.940Z,101947.59
2023-02-09T19:14:52.695Z,101956.22
2023-02-09T19:18:20.140Z,101954.92
2023-02-09T19:21:52.427Z,101952.33
2023-02-09T19:25:20.963Z,101950.90
2023-02-09T19:28:48.751Z,101939.36
2023-02-09T19:32:20.534Z,101930.88
2023-02-09T19:35:56.600Z,101936.03
2023-02-09T19:39:23.960Z,101935.52
2023-02-09T19:42:51.459Z,101938.05
2023-02-09T19:46:19.097Z,101937.48
2023-02-09T19:49:46.734Z,101928.75
2023-02-09T19:53:17.682Z,101932.28
2023-02-09T19:56:45.487Z,101938.72
2023-02-09T20:00:18.727Z,101934.95
2023-02-09T20:03:45.809Z,101927.42
2023-02-09T20:07:12.915Z,101923.20
2023-02-09T20:10:42.260Z,101917.41
2023-02-09T20:14:09.541Z,101906.20
2023-02-09T20:17:37.467Z,101897.36
2023-02-09T20:21:09.579Z,101891.91
2023-02-09T20:24:37.496Z,101882.32
2023-02-09T20:28:05.552Z,101875.51
2023-02-09T20:31:35.869Z,101868.85
2023-02-09T20:35:03.116Z,101867.97
2023-02-09T20:38:30.482Z,101878.06
2023-02-09T20:42:20.947Z,101879.09
2023-02-09T20:46:05.382Z,101873.44
2023-02-09T20:49:41.921Z,101875.31
2023-02-09T20:53:14.209Z,101866.05
2023-02-09T20:56:41.724Z,101872.69
2023-02-09T21:00:11.119Z,101873.70
2023-02-09T21:03:38.132Z,101879.98
2023-02-09T21:07:06.219Z,101877.41
2023-02-09T21:10:36.092Z,101881.83
2023-02-09T21:14:03.976Z,101885.86
2023-02-09T21:17:31.384Z,101882.39
2023-02-09T21:21:00.642Z,101885.42
2023-02-09T21:24:31.576Z,101886.06
2023-02-09T21:28:00.354Z,101883.26
2023-02-09T21:31:30.980Z,101882.41
2023-02-09T21:34:58.698Z,101878.30
2023-02-09T21:38:27.501Z,101885.79
2023-02-09T21:42:12.983Z,101886.28
2023-02-09T21:45:41.953Z,101881.29
2023-02-09T21:49:10.173Z,101877.99
2023-02-09T21:52:38.449Z,101872.66
2023-02-09T21:56:10.692Z,101866.27
2023-02-09T21:59:37.960Z,101871.67
2023-02-09T22:03:06.647Z,101861.70
2023-02-09T22:06:33.910Z,101858.20
2023-02-09T22:10:05.617Z,101860.38
2023-02-09T22:13:34.082Z,101866.67
2023-02-09T22:17:06.853Z,101863.55
2023-02-09T22:20:33.921Z,101864.85
2023-02-09T22:24:01.259Z,101864.80
2023-02-09T22:27:28.026Z,101863.35
2023-02-09T22:30:55.192Z,101862.24
2023-02-09T22:34:21.705Z,101859.64
2023-02-09T22:37:48.956Z,101860.27
2023-02-09T22:41:22.661Z,101863.61
2023-02-09T22:44:49.638Z,101864.95
2023-02-09T22:48:16.548Z,101858.67
2023-02-09T22:51:43.859Z,101854.44
2023-02-09T22:55:11.953Z,101851.77
2023-02-09T22:58:39.086Z,101854.25
2023-02-09T23:02:07.214Z,101856.67
2023-02-09T23:05:36.075Z,101862.48
2023-02-09T23:09:07.490Z,101856.17
2023-02-09T23:12:34.571Z,101855.64
2023-02-09T23:16:09.848Z,101861.88
2023-02-09T23:19:38.073Z,101868.45
2023-02-09T23:23:06.871Z,101870.97
2023-02-09T23:26:38.547Z,101867.86
2023-02-09T23:30:05.777Z,101866.25
2023-02-09T23:33:36.699Z,101868.05
2023-02-09T23:37:13.572Z,101863.02
2023-02-09T23:40:47.325Z,101855.77
2023-02-09T23:44:14.589Z,101850.10
2023-02-09T23:47:43.445Z,101847.49
2023-02-09T23:51:14.814Z,101847.58
2023-02-09T23:54:43.486Z,101841.61
2023-02-09T23:58:12.556Z,101837.48
